Home > Products > Valid Products > TAF

000
FTUS45 KBYZ 072333
TAFMLS
TAF
KMLS 072333Z 0800/0824 32018G28KT P6SM FEW080 SCT250
     FM080300 30011KT P6SM SCT100 BKN250
     FM081600 30012KT P6SM SCT060 BKN120=



000
FTUS45 KBYZ 072333
TAFSHR
TAF
KSHR 072333Z 0800/0824 32012KT P6SM SCT070 BKN250
     FM080300 VRB05KT P6SM BKN100 OVC250
     FM081700 32015G25KT P6SM SCT070 BKN250=



000
FTUS45 KBYZ 072333
TAFLVM
TAF
KLVM 072333Z 0800/0824 25015G25KT P6SM SCT250
     FM080500 23025G35KT P6SM SCT100 BKN250
     FM081000 23032G42KT P6SM SCT100 BKN250
     FM082100 26025G35KT P6SM SCT250=



000
FTUS45 KBYZ 072333
TAFBIL
TAF
KBIL 072333Z 0800/0824 33012KT P6SM FEW070 SCT250
     FM080400 30008KT P6SM BKN100
     FM081000 24010KT P6SM SCT100
     FM082100 27015KT P6SM FEW070 SCT200=



000
FTUS45 KBYZ 072002 AAA
TAFBIL
TAF AMD
KBIL 072002Z 0720/0818 33020G30KT P6SM FEW080
     FM080000 25010KT P6SM FEW070 SCT100=



000
FTUS45 KBYZ 071732
TAFLVM
TAF
KLVM 071732Z 0718/0818 27020KT P6SM SCT070
     FM072000 26020G25KT P6SM FEW100
     FM080600 23020G35KT P6SM FEW200=



000
FTUS45 KBYZ 071732
TAFMLS
TAF
KMLS 071732Z 0718/0818 32030G45KT P6SM SKC
     FM072200 30020G35KT P6SM SKC
     FM080400 29015KT P6SM FEW120 SCT250=



000
FTUS45 KBYZ 071732
TAFBIL
TAF
KBIL 071732Z 0718/0818 31020G30KT P6SM FEW080
     FM080000 25010KT P6SM FEW070 SCT100=



000
FTUS45 KBYZ 071732
TAFSHR
TAF
KSHR 071732Z 0718/0818 31020G30KT P6SM SCT200
     FM080200 31006KT P6SM FEW070
      AMD NOT SKED=



000
FTUS45 KBYZ 071257 AAA
TAFBIL
TAF AMD
KBIL 071257Z 0713/0812 32014KT P6SM FEW080
     FM072000 31015G28KT P6SM BKN150
     FM080200 24010KT P6SM FEW070 SCT100=



000
FTUS45 KBYZ 071139
TAFMLS
TAF
KMLS 071139Z 0712/0812 30024G32KT P6SM SKC WS020/32050KT
     FM071700 32033G45KT P6SM SKC
     FM072000 32030G55KT P6SM SKC
     FM080300 30012G20KT P6SM FEW120 SCT250=



000
FTUS45 KBYZ 071139
TAFSHR
TAF
KSHR 071139Z 0712/0812 32016KT P6SM FEW120 BKN200
     FM071600 31014G32KT P6SM SCT200
     FM072200 32019G40KT P6SM SCT200
     FM080200 28006KT P6SM FEW070
      AMD NOT SKED=



000
FTUS45 KBYZ 071139
TAFLVM
TAF
KLVM 071139Z 0712/0812 26017G23KT P6SM SCT070=



000
FTUS45 KBYZ 071139
TAFLVM
TAF
KLVM 071139Z 0712/0812 26017G23KT P6SM SCT070=



000
FTUS45 KBYZ 071139
TAFBIL
TAF
KBIL 071139Z 0712/0812 30017KT P6SM FEW100
     FM072000 31015G28KT P6SM BKN150
     FM080200 24010KT P6SM FEW070 SCT100=



000
FTUS45 KBYZ 071139
TAFSHR
TAF
KSHR 071139Z 0712/0812 32016KT P6SM FEW120 BKN200
     FM071600 31014G32KT P6SM SCT200
     FM072200 32019G40KT P6SM SCT200
     FM080200 28006KT P6SM FEW070
      AMD NOT SKED=



000
FTUS45 KBYZ 071139
TAFMLS
TAF
KMLS 071139Z 0712/0812 30024G32KT P6SM SKC WS020/32050KT
     FM071700 32033G45KT P6SM SKC
     FM072000 32030G55KT P6SM SKC
     FM080300 30012G20KT P6SM FEW120 SCT250=



000
FTUS45 KBYZ 071139
TAFBIL
TAF
KBIL 071139Z 0712/0812 30017KT P6SM FEW100
     FM072000 31015G28KT P6SM BKN150
     FM080200 24010KT P6SM FEW070 SCT100=



000
FTUS45 KBYZ 070942 AAA
TAFMLS
TAF AMD
KMLS 070942Z 0710/0806 30021G28KT P6SM SCT120 WS020/32055KT
     FM071100 30025G42KT P6SM SCT100
     FM072000 30020G30KT P6SM SCT250
     FM080300 30012KT P6SM FEW100 SCT250=



000
FTUS45 KBYZ 070726 AAB
TAFSHR
TAF AMD
KSHR 070726Z 0707/0806 29018G31KT P6SM VCSH BKN060 OVC120
      WS020/32050KT
     FM071000 32020G32KT P6SM FEW100 SCT200 WS020/32050KT
     FM072000 30018G28KT P6SM SCT120 BKN200
     FM080200 30008KT P6SM SCT100 SCT200
      AMD NOT SKED=



000
FTUS45 KBYZ 070726 AAB
TAFSHR
TAF AMD
KSHR 070726Z 0707/0806 29018G31KT P6SM VCSH BKN060 OVC120
      WS020/32050KT
     FM071000 32020G32KT P6SM FEW100 SCT200 WS020/32050KT
     FM072000 30018G28KT P6SM SCT120 BKN200
     FM080200 30008KT P6SM SCT100 SCT200
      AMD NOT SKED=



000
FTUS45 KBYZ 070726 AAB
TAFSHR
TAF AMD
KSHR 070726Z 0707/0806 29018G31KT P6SM VCSH BKN060 OVC120
      WS020/32050KT
     FM071000 32020G32KT P6SM FEW100 SCT200 WS020/32050KT
     FM072000 30018G28KT P6SM SCT120 BKN200
     FM080200 30008KT P6SM SCT100 SCT200
      AMD NOT SKED=



000
FTUS45 KBYZ 070536 AAA
TAFSHR
TAF AMD
KSHR 070536Z 0706/0806 32015G25KT P6SM VCSH BKN060 OVC120
      WS020/32050KT
     FM071000 32020G32KT P6SM FEW100 SCT200 WS020/32050KT
     FM072000 30018G28KT P6SM SCT120 BKN200
     FM080200 30008KT P6SM SCT100 SCT200
      AMD NOT SKED=



000
FTUS45 KBYZ 070536 AAA
TAFSHR
TAF AMD
KSHR 070536Z 0706/0806 32015G25KT P6SM VCSH BKN060 OVC120
      WS020/32050KT
     FM071000 32020G32KT P6SM FEW100 SCT200 WS020/32050KT
     FM072000 30018G28KT P6SM SCT120 BKN200
     FM080200 30008KT P6SM SCT100 SCT200
      AMD NOT SKED=



000
FTUS45 KBYZ 070535
TAFBIL
TAF
KBIL 070535Z 0706/0806 31020G32KT P6SM SCT150 BKN250
     FM071000 30015KT P6SM SCT080 SCT250
     FM071700 30015G28KT P6SM SCT150 SCT250
     FM080200 28012KT P6SM FEW100 SCT250=



000
FTUS45 KBYZ 070535
TAFLVM
TAF
KLVM 070535Z 0706/0806 30010KT P6SM SCT080 BKN250
     FM071000 26015G22KT P6SM FEW080 SCT250
     FM071500 26020G30KT P6SM FEW100 SCT250
     FM080200 23015G25KT P6SM SCT070 BKN150=



000
FTUS45 KBYZ 070535
TAFBIL
TAF
KBIL 070535Z 0706/0806 31020G32KT P6SM SCT150 BKN250
     FM071000 30015KT P6SM SCT080 SCT250
     FM071700 30015G28KT P6SM SCT150 SCT250
     FM080200 28012KT P6SM FEW100 SCT250=



000
FTUS45 KBYZ 070535
TAFMLS
TAF
KMLS 070535Z 0706/0806 27013KT P6SM SCT120 WS020/32055KT
     FM071100 30025G42KT P6SM SCT100
     FM072000 30020G30KT P6SM SCT250
     FM080300 30012KT P6SM FEW100 SCT250=



000
FTUS45 KBYZ 070535
TAFBIL
TAF
KBIL 070535Z 0706/0806 31020G32KT P6SM SCT150 BKN250
     FM071000 30015KT P6SM SCT080 SCT250
     FM071700 30015G28KT P6SM SCT150 SCT250
     FM080200 28012KT P6SM FEW100 SCT250=



000
FTUS45 KBYZ 070535
TAFMLS
TAF
KMLS 070535Z 0706/0806 27013KT P6SM SCT120 WS020/32055KT
     FM071100 30025G42KT P6SM SCT100
     FM072000 30020G30KT P6SM SCT250
     FM080300 30012KT P6SM FEW100 SCT250=



000
FTUS45 KBYZ 070535
TAFSHR
TAF
KSHR 070535Z 0706/0806 32015G25KT P6SM VCSH BKN060 OVC120
      WS020/32050KT
     FM071000 32020G32KT P6SM FEW100 SCT200 WS020/32050KT
     FM072000 30018G28KT P6SM SCT120 BKN200
     FM080200 30008KT P6SM SCT100 SCT200=



000
FTUS45 KBYZ 070535
TAFMLS
TAF
KMLS 070535Z 0706/0806 27013KT P6SM SCT120 WS020/32055KT
     FM071100 30025G42KT P6SM SCT100
     FM072000 30020G30KT P6SM SCT250
     FM080300 30012KT P6SM FEW100 SCT250=



000
FTUS45 KBYZ 070535
TAFLVM
TAF
KLVM 070535Z 0706/0806 30010KT P6SM SCT080 BKN250
     FM071000 26015G22KT P6SM FEW080 SCT250
     FM071500 26020G30KT P6SM FEW100 SCT250
     FM080200 23015G25KT P6SM SCT070 BKN150=



000
FTUS45 KBYZ 070535
TAFSHR
TAF
KSHR 070535Z 0706/0806 32015G25KT P6SM VCSH BKN060 OVC120
      WS020/32050KT
     FM071000 32020G32KT P6SM FEW100 SCT200 WS020/32050KT
     FM072000 30018G28KT P6SM SCT120 BKN200
     FM080200 30008KT P6SM SCT100 SCT200=



000
FTUS45 KBYZ 070535
TAFLVM
TAF
KLVM 070535Z 0706/0806 30010KT P6SM SCT080 BKN250
     FM071000 26015G22KT P6SM FEW080 SCT250
     FM071500 26020G30KT P6SM FEW100 SCT250
     FM080200 23015G25KT P6SM SCT070 BKN150=



000
FTUS45 KBYZ 070535
TAFSHR
TAF
KSHR 070535Z 0706/0806 32015G25KT P6SM VCSH BKN060 OVC120
      WS020/32050KT
     FM071000 32020G32KT P6SM FEW100 SCT200 WS020/32050KT
     FM072000 30018G28KT P6SM SCT120 BKN200
     FM080200 30008KT P6SM SCT100 SCT200=



000
FTUS45 KBYZ 070448 AAA
TAFLVM
TAF AMD
KLVM 070448Z 0705/0724 30015KT P6SM BKN060 OVC150
     FM071000 25015G25KT P6SM BKN060 BKN200=



000
FTUS45 KBYZ 070414 AAA
TAFBIL
TAF AMD
KBIL 070414Z 0704/0724 32028G38KT P6SM FEW070 SCT150 OVC250
     FM070500 31020KT P6SM SCT150 BKN250
     FM071000 30015KT P6SM BKN060 BKN150
     FM071500 27015KT P6SM FEW080 SCT200=



000
FTUS45 KBYZ 070414 AAA
TAFBIL
TAF AMD
KBIL 070414Z 0704/0724 32028G38KT P6SM FEW070 SCT150 OVC250
     FM070500 31020KT P6SM SCT150 BKN250
     FM071000 30015KT P6SM BKN060 BKN150
     FM071500 27015KT P6SM FEW080 SCT200=



000
FTUS45 KBYZ 070414 AAA
TAFBIL
TAF AMD
KBIL 070414Z 0704/0724 32028G38KT P6SM FEW070 SCT150 OVC250
     FM070500 31020KT P6SM SCT150 BKN250
     FM071000 30015KT P6SM BKN060 BKN150
     FM071500 27015KT P6SM FEW080 SCT200=



000
FTUS45 KBYZ 062329
TAFBIL
TAF
KBIL 062329Z 0700/0724 30025G35KT P6SM FEW070 SCT150 OVC250
     FM070300 31020KT P6SM SCT150 BKN250
     FM071000 30015KT P6SM BKN060 BKN150
     FM071500 27015KT P6SM FEW080 SCT200=



000
FTUS45 KBYZ 062329
TAFLVM
TAF
KLVM 062329Z 0700/0724 25015G25KT P6SM BKN060 BKN200=



000
FTUS45 KBYZ 062329
TAFBIL
TAF
KBIL 062329Z 0700/0724 30025G35KT P6SM FEW070 SCT150 OVC250
     FM070300 31020KT P6SM SCT150 BKN250
     FM071000 30015KT P6SM BKN060 BKN150
     FM071500 27015KT P6SM FEW080 SCT200=



000
FTUS45 KBYZ 062329
TAFBIL
TAF
KBIL 062329Z 0700/0724 30025G35KT P6SM FEW070 SCT150 OVC250
     FM070300 31020KT P6SM SCT150 BKN250
     FM071000 30015KT P6SM BKN060 BKN150
     FM071500 27015KT P6SM FEW080 SCT200=



000
FTUS45 KBYZ 062329
TAFLVM
TAF
KLVM 062329Z 0700/0724 25015G25KT P6SM BKN060 BKN200=



000
FTUS45 KBYZ 062329
TAFSHR
TAF
KSHR 062329Z 0700/0724 32025KT P6SM BKN120 BKN200
     FM070400 32015G25KT P6SM VCSH BKN060 OVC120 WS020/32050KT
     FM071400 32018G28KT P6SM SCT100 BKN200 WS020/32050KT
     FM072000 30018KT P6SM SCT120 BKN200=



000
FTUS45 KBYZ 062329
TAFMLS
TAF
KMLS 062329Z 0700/0724 31030G40KT P6SM VCSH SCT050 OVC200
     FM070400 29022KT P6SM SCT060 SCT200 WS020/31050KT
     FM071700 30020G35KT P6SM FEW060 SCT200=



000
FTUS45 KBYZ 062329
TAFLVM
TAF
KLVM 062329Z 0700/0724 25015G25KT P6SM BKN060 BKN200=



000
FTUS45 KBYZ 062329
TAFMLS
TAF
KMLS 062329Z 0700/0724 31030G40KT P6SM VCSH SCT050 OVC200
     FM070400 29022KT P6SM SCT060 SCT200 WS020/31050KT
     FM071700 30020G35KT P6SM FEW060 SCT200=



000
FTUS45 KBYZ 062329
TAFSHR
TAF
KSHR 062329Z 0700/0724 32025KT P6SM BKN120 BKN200
     FM070400 32015G25KT P6SM VCSH BKN060 OVC120 WS020/32050KT
     FM071400 32018G28KT P6SM SCT100 BKN200 WS020/32050KT
     FM072000 30018KT P6SM SCT120 BKN200=



000
FTUS45 KBYZ 062329
TAFMLS
TAF
KMLS 062329Z 0700/0724 31030G40KT P6SM VCSH SCT050 OVC200
     FM070400 29022KT P6SM SCT060 SCT200 WS020/31050KT
     FM071700 30020G35KT P6SM FEW060 SCT200=



000
FTUS45 KBYZ 062329
TAFSHR
TAF
KSHR 062329Z 0700/0724 32025KT P6SM BKN120 BKN200
     FM070400 32015G25KT P6SM VCSH BKN060 OVC120 WS020/32050KT
     FM071400 32018G28KT P6SM SCT100 BKN200 WS020/32050KT
     FM072000 30018KT P6SM SCT120 BKN200=



000
FTUS45 KBYZ 061731
TAFBIL
TAF
KBIL 061731Z 0618/0718 28025G35KT P6SM SCT060 SCT200
     FM062000 30035G50KT P6SM SCT160
     FM070100 28020G30KT P6SM SCT130
     FM070900 29015KT P6SM SKC=



000
FTUS45 KBYZ 061731
TAFLVM
TAF
KLVM 061731Z 0618/0718 26045G55KT P6SM VCSH BKN040
     FM061900 28050G60KT P6SM VCSH SCT040
     FM062200 26030G40KT P6SM VCSH SCT180
     FM070000 24015G25KT P6SM VCSH FEW140
     FM070600 23025G35KT P6SM SKC=



000
FTUS45 KBYZ 061731
TAFSHR
TAF
KSHR 061731Z 0618/0718 26009KT P6SM BKN240
     FM061900 31015G25KT P6SM SCT210
     FM062100 33025G35KT P6SM VCSH BKN060
     FM062300 31015G25KT P6SM SCT060=



000
FTUS45 KBYZ 061731
TAFMLS
TAF
KMLS 061731Z 0618/0718 25025G40KT P6SM SCT100
     FM061900 28025G50KT P6SM VCSH BKN060
     FM062100 30035G50KT P6SM SCT060
     FM070000 29025G35KT P6SM SCT050
     FM070500 29015G20KT P6SM FEW050=



000
FTUS45 KBYZ 061138
TAFBIL
TAF
KBIL 061138Z 0612/0712 24022G30KT P6SM BKN200
     FM061700 26025G50KT P6SM BKN100
     FM061900 29033G50KT P6SM SCT100
     FM070200 29025G35KT P6SM FEW100=



000
FTUS45 KBYZ 061138
TAFSHR
TAF
KSHR 061138Z 0612/0712 VRB03KT P6SM BKN200
     FM061800 32013G25KT P6SM BKN200
     FM062200 33017G40KT P6SM VCSH SCT040 BKN060
      AMD NOT SKED=



000
FTUS45 KBYZ 061138
TAFLVM
TAF
KLVM 061138Z 0612/0712 21040G53KT P6SM SCT200
     FM061700 26040G55KT P6SM VCSH BKN040 OVC060
     FM061900 28040G62KT P6SM VCSH BKN040 OVC060
     FM070200 26035G52KT P6SM SCT060
     FM070700 26015G24KT P6SM FEW120=



000
FTUS45 KBYZ 061138
TAFBIL
TAF
KBIL 061138Z 0612/0712 24022G30KT P6SM BKN200
     FM061700 26025G50KT P6SM BKN100
     FM061900 29033G50KT P6SM SCT100
     FM070200 29025G35KT P6SM FEW100=



000
FTUS45 KBYZ 061138
TAFLVM
TAF
KLVM 061138Z 0612/0712 21040G53KT P6SM SCT200
     FM061700 26040G55KT P6SM VCSH BKN040 OVC060
     FM061900 28040G62KT P6SM VCSH BKN040 OVC060
     FM070200 26035G52KT P6SM SCT060
     FM070700 26015G24KT P6SM FEW120=



000
FTUS45 KBYZ 061138
TAFMLS
TAF
KMLS 061138Z 0612/0712 19009KT P6SM FEW120 BKN200
     FM061700 25025G40KT P6SM BKN100
     FM061900 28036G50KT P6SM BKN100=



000
FTUS45 KBYZ 061138
TAFSHR
TAF
KSHR 061138Z 0612/0712 VRB03KT P6SM BKN200
     FM061800 32013G25KT P6SM BKN200
     FM062200 33017G40KT P6SM VCSH SCT040 BKN060
      AMD NOT SKED=



000
FTUS45 KBYZ 061138
TAFBIL
TAF
KBIL 061138Z 0612/0712 24022G30KT P6SM BKN200
     FM061700 26025G50KT P6SM BKN100
     FM061900 29033G50KT P6SM SCT100
     FM070200 29025G35KT P6SM FEW100=



000
FTUS45 KBYZ 061138
TAFLVM
TAF
KLVM 061138Z 0612/0712 21040G53KT P6SM SCT200
     FM061700 26040G55KT P6SM VCSH BKN040 OVC060
     FM061900 28040G62KT P6SM VCSH BKN040 OVC060
     FM070200 26035G52KT P6SM SCT060
     FM070700 26015G24KT P6SM FEW120=



000
FTUS45 KBYZ 061138
TAFSHR
TAF
KSHR 061138Z 0612/0712 VRB03KT P6SM BKN200
     FM061800 32013G25KT P6SM BKN200
     FM062200 33017G40KT P6SM VCSH SCT040 BKN060
      AMD NOT SKED=



000
FTUS45 KBYZ 061138
TAFMLS
TAF
KMLS 061138Z 0612/0712 19009KT P6SM FEW120 BKN200
     FM061700 25025G40KT P6SM BKN100
     FM061900 28036G50KT P6SM BKN100=



000
FTUS45 KBYZ 061138
TAFMLS
TAF
KMLS 061138Z 0612/0712 19009KT P6SM FEW120 BKN200
     FM061700 25025G40KT P6SM BKN100
     FM061900 28036G50KT P6SM BKN100=



000
FTUS45 KBYZ 061048 AAA
TAFMLS
TAF AMD
KMLS 061048Z 0611/0706 12006KT P6SM BKN200
     FM061200 25025G40KT P6SM FEW150
     FM061600 27035G50KT P6SM SCT100
     FM062000 29040G55KT P6SM SCT100
     FM070500 31036KT P6SM BKN100=



000
FTUS45 KBYZ 061048 AAA
TAFMLS
TAF AMD
KMLS 061048Z 0611/0706 12006KT P6SM BKN200
     FM061200 25025G40KT P6SM FEW150
     FM061600 27035G50KT P6SM SCT100
     FM062000 29040G55KT P6SM SCT100
     FM070500 31036KT P6SM BKN100=



000
FTUS45 KBYZ 061048 AAA
TAFMLS
TAF AMD
KMLS 061048Z 0611/0706 12006KT P6SM BKN200
     FM061200 25025G40KT P6SM FEW150
     FM061600 27035G50KT P6SM SCT100
     FM062000 29040G55KT P6SM SCT100
     FM070500 31036KT P6SM BKN100=



000
FTUS45 KBYZ 060536
TAFBIL
TAF
KBIL 060536Z 0606/0706 24018KT P6SM SKC
     FM061400 28025G35KT P6SM SCT200
     FM061900 28033G48KT P6SM BKN200
     FM070200 31025G35KT P6SM SCT200=



000
FTUS45 KBYZ 060536
TAFSHR
TAF
KSHR 060536Z 0606/0706 18006KT P6SM SKC
     FM061700 30011KT P6SM SCT100
     FM062300 31017G35KT P6SM VCSH SCT040 BKN060
      AMD NOT SKED=



000
FTUS45 KBYZ 060536
TAFMLS
TAF
KMLS 060536Z 0606/0706 18003KT P6SM SKC
     FM061000 25025G40KT P6SM FEW150
     FM061600 27035G50KT P6SM SCT100
     FM062000 29040G55KT P6SM SCT100
     FM070500 31036KT P6SM BKN100=



000
FTUS45 KBYZ 060536
TAFLVM
TAF
KLVM 060536Z 0606/0706 21032G46KT P6SM SKC
     FM061000 22035G58KT P6SM BKN100
     FM061400 24043G60KT P6SM VCSH SCT060 BKN090
     FM061700 27040G62KT P6SM BKN050
     FM062300 29038G50KT P6SM SCT060=



000
FTUS45 KBYZ 060536
TAFBIL
TAF
KBIL 060536Z 0606/0706 24018KT P6SM SKC
     FM061400 28025G35KT P6SM SCT200
     FM061900 28033G48KT P6SM BKN200
     FM070200 31025G35KT P6SM SCT200=



000
FTUS45 KBYZ 060536
TAFMLS
TAF
KMLS 060536Z 0606/0706 18003KT P6SM SKC
     FM061000 25025G40KT P6SM FEW150
     FM061600 27035G50KT P6SM SCT100
     FM062000 29040G55KT P6SM SCT100
     FM070500 31036KT P6SM BKN100=



000
FTUS45 KBYZ 060536
TAFMLS
TAF
KMLS 060536Z 0606/0706 18003KT P6SM SKC
     FM061000 25025G40KT P6SM FEW150
     FM061600 27035G50KT P6SM SCT100
     FM062000 29040G55KT P6SM SCT100
     FM070500 31036KT P6SM BKN100=



000
FTUS45 KBYZ 060536
TAFLVM
TAF
KLVM 060536Z 0606/0706 21032G46KT P6SM SKC
     FM061000 22035G58KT P6SM BKN100
     FM061400 24043G60KT P6SM VCSH SCT060 BKN090
     FM061700 27040G62KT P6SM BKN050
     FM062300 29038G50KT P6SM SCT060=



000
FTUS45 KBYZ 060536
TAFLVM
TAF
KLVM 060536Z 0606/0706 21032G46KT P6SM SKC
     FM061000 22035G58KT P6SM BKN100
     FM061400 24043G60KT P6SM VCSH SCT060 BKN090
     FM061700 27040G62KT P6SM BKN050
     FM062300 29038G50KT P6SM SCT060=



000
FTUS45 KBYZ 060536
TAFSHR
TAF
KSHR 060536Z 0606/0706 18006KT P6SM SKC
     FM061700 30011KT P6SM SCT100
     FM062300 31017G35KT P6SM VCSH SCT040 BKN060
      AMD NOT SKED=



000
FTUS45 KBYZ 060536
TAFSHR
TAF
KSHR 060536Z 0606/0706 18006KT P6SM SKC
     FM061700 30011KT P6SM SCT100
     FM062300 31017G35KT P6SM VCSH SCT040 BKN060
      AMD NOT SKED=



000
FTUS45 KBYZ 060536
TAFBIL
TAF
KBIL 060536Z 0606/0706 24018KT P6SM SKC
     FM061400 28025G35KT P6SM SCT200
     FM061900 28033G48KT P6SM BKN200
     FM070200 31025G35KT P6SM SCT200=



000
FTUS45 KBYZ 060125 AAA
TAFLVM
TAF AMD
KLVM 060125Z 0601/0624 22025G40KT P6SM SCT060
     FM060600 23030G45KT P6SM FEW200
     FM061000 22035G58KT P6SM BKN100
     FM061400 24040G58KT P6SM VCSH SCT040 BKN060
     FM061700 27040G62KT P6SM BKN050=



000
FTUS45 KBYZ 060125 AAA
TAFLVM
TAF AMD
KLVM 060125Z 0601/0624 22025G40KT P6SM SCT060
     FM060600 23030G45KT P6SM FEW200
     FM061000 22035G58KT P6SM BKN100
     FM061400 24040G58KT P6SM VCSH SCT040 BKN060
     FM061700 27040G62KT P6SM BKN050=



000
FTUS45 KBYZ 060125 AAA
TAFLVM
TAF AMD
KLVM 060125Z 0601/0624 22025G40KT P6SM SCT060
     FM060600 23030G45KT P6SM FEW200
     FM061000 22035G58KT P6SM BKN100
     FM061400 24040G58KT P6SM VCSH SCT040 BKN060
     FM061700 27040G62KT P6SM BKN050=



000
FTUS45 KBYZ 052327
TAFLVM
TAF
KLVM 052327Z 0600/0624 25020G30KT P6SM SCT060
     FM060600 23030G45KT P6SM FEW200
     FM061000 22035G58KT P6SM BKN100
     FM061400 24040G58KT P6SM VCSH SCT040 BKN060
     FM061700 27040G62KT P6SM BKN050=



000
FTUS45 KBYZ 052327
TAFMLS
TAF
KMLS 052327Z 0600/0624 25012G20KT P6SM FEW250
     FM061000 25025G40KT P6SM FEW150
     FM061300 27035G50KT P6SM SCT100
     FM061600 27025G40KT P6SM BKN110
     FM062000 26040G55KT P6SM SCT100=



000
FTUS45 KBYZ 052327
TAFSHR
TAF
KSHR 052327Z 0600/0624 VRB05KT P6SM SKC
     FM061700 30011KT P6SM SCT100
     FM062300 31017G35KT P6SM VCSH SCT040 BKN060
      AMD NOT SKED=



000
FTUS45 KBYZ 052327
TAFBIL
TAF
KBIL 052327Z 0600/0624 24015G24KT P6SM FEW200
     FM061500 28025G35KT P6SM SCT200
     FM061900 28030G45KT P6SM SCT200=



000
FTUS45 KBYZ 052327
TAFMLS
TAF
KMLS 052327Z 0600/0624 25012G20KT P6SM FEW250
     FM061000 25025G40KT P6SM FEW150
     FM061300 27035G50KT P6SM SCT100
     FM061600 27025G40KT P6SM BKN110
     FM062000 26040G55KT P6SM SCT100=



000
FTUS45 KBYZ 052327
TAFLVM
TAF
KLVM 052327Z 0600/0624 25020G30KT P6SM SCT060
     FM060600 23030G45KT P6SM FEW200
     FM061000 22035G58KT P6SM BKN100
     FM061400 24040G58KT P6SM VCSH SCT040 BKN060
     FM061700 27040G62KT P6SM BKN050=



000
FTUS45 KBYZ 052327
TAFSHR
TAF
KSHR 052327Z 0600/0624 VRB05KT P6SM SKC
     FM061700 30011KT P6SM SCT100
     FM062300 31017G35KT P6SM VCSH SCT040 BKN060
      AMD NOT SKED=



000
FTUS45 KBYZ 052327
TAFBIL
TAF
KBIL 052327Z 0600/0624 24015G24KT P6SM FEW200
     FM061500 28025G35KT P6SM SCT200
     FM061900 28030G45KT P6SM SCT200=



000
FTUS45 KBYZ 051734
TAFBIL
TAF
KBIL 051734Z 0518/0618 24015G25KT P6SM FEW200
     FM060800 25015KT P6SM FEW100 SCT150
     FM061700 28025G35KT P6SM SCT200=



000
FTUS45 KBYZ 051734
TAFLVM
TAF
KLVM 051734Z 0518/0618 23025G40KT P6SM SCT060
     FM060600 23030G45KT P6SM FEW200
     FM061000 23035G58KT P6SM BKN100=



000
FTUS45 KBYZ 051734
TAFSHR
TAF
KSHR 051734Z 0518/0618 VRB05KT P6SM SKC
     FM061700 30008KT P6SM SCT100
      AMD NOT SKED=



000
FTUS45 KBYZ 051734
TAFMLS
TAF
KMLS 051734Z 0518/0618 23011KT P6SM SKC
     FM052100 25012G20KT P6SM FEW250
     FM060400 25010KT P6SM FEW150
     FM061500 27015G25KT P6SM SCT100=



000
FTUS45 KBYZ 051342 AAA
TAFLVM
TAF AMD
KLVM 051342Z 0514/0612 25018G33KT P6SM SCT060
     FM060600 23030G45KT P6SM FEW200
     FM061000 23035G55KT P6SM FEW100=



000
FTUS45 KBYZ 051120
TAFBIL
TAF
KBIL 051120Z 0512/0612 28019KT P6SM FEW090
     FM051500 24015G25KT P6SM FEW200
     FM060600 23020G30KT P6SM FEW200=



000
FTUS45 KBYZ 051120
TAFMLS
TAF
KMLS 051120Z 0512/0612 30010KT P6SM SKC
     FM051800 26012KT P6SM SKC
     FM052100 25014G22KT P6SM SKC
     FM060300 25020G35KT P6SM SKC=



000
FTUS45 KBYZ 051120
TAFLVM
TAF
KLVM 051120Z 0512/0612 25017KT P6SM SCT060
     FM051500 25017G26KT P6SM FEW200
     FM060600 23030G45KT P6SM FEW200
     FM061000 23035G55KT P6SM FEW100=



000
FTUS45 KBYZ 051120
TAFSHR
TAF
KSHR 051120Z 0512/0612 29010KT P6SM SCT070
     FM051600 VRB05KT P6SM FEW070
     FM060300 20012KT P6SM FEW090
      AMD NOT SKED=



000
FTUS45 KBYZ 051120
TAFLVM
TAF
KLVM 051120Z 0512/0612 25017KT P6SM SCT060
     FM051500 25017G26KT P6SM FEW200
     FM060600 23030G45KT P6SM FEW200
     FM061000 23035G55KT P6SM FEW100=



000
FTUS45 KBYZ 051120
TAFMLS
TAF
KMLS 051120Z 0512/0612 30010KT P6SM SKC
     FM051800 26012KT P6SM SKC
     FM052100 25014G22KT P6SM SKC
     FM060300 25020G35KT P6SM SKC=



000
FTUS45 KBYZ 051120
TAFSHR
TAF
KSHR 051120Z 0512/0612 29010KT P6SM SCT070
     FM051600 VRB05KT P6SM FEW070
     FM060300 20012KT P6SM FEW090
      AMD NOT SKED=



000
FTUS45 KBYZ 051120
TAFBIL
TAF
KBIL 051120Z 0512/0612 28019KT P6SM FEW090
     FM051500 24015G25KT P6SM FEW200
     FM060600 23020G30KT P6SM FEW200=



000
FTUS45 KBYZ 051120
TAFMLS
TAF
KMLS 051120Z 0512/0612 30010KT P6SM SKC
     FM051800 26012KT P6SM SKC
     FM052100 25014G22KT P6SM SKC
     FM060300 25020G35KT P6SM SKC=



000
FTUS45 KBYZ 051120
TAFLVM
TAF
KLVM 051120Z 0512/0612 25017KT P6SM SCT060
     FM051500 25017G26KT P6SM FEW200
     FM060600 23030G45KT P6SM FEW200
     FM061000 23035G55KT P6SM FEW100=



000
FTUS45 KBYZ 051120
TAFSHR
TAF
KSHR 051120Z 0512/0612 29010KT P6SM SCT070
     FM051600 VRB05KT P6SM FEW070
     FM060300 20012KT P6SM FEW090
      AMD NOT SKED=



000
FTUS45 KBYZ 051120
TAFBIL
TAF
KBIL 051120Z 0512/0612 28019KT P6SM FEW090
     FM051500 24015G25KT P6SM FEW200
     FM060600 23020G30KT P6SM FEW200=



000
FTUS45 KBYZ 050941 AAB
TAFMLS
TAF AMD
KMLS 050941Z 0510/0606 30012KT P6SM BKN100
     FM051400 27012KT P6SM SCT030 BKN060
     FM051700 26011KT P6SM SCT010 SCT120
     FM052200 26014G22KT P6SM SKC
     FM060300 25020G35KT P6SM FEW030=



000
FTUS45 KBYZ 050941 AAA
TAFLVM
TAF AMD
KLVM 050941Z 0510/0606 25012KT P6SM OVC060
     FM051500 22020G35KT P6SM SCT040 BKN060
     FM052000 22033G45KT P6SM SCT060
     FM060200 22040G50KT P6SM SCT060=



000
FTUS45 KBYZ 050731 AAB
TAFBIL
TAF AMD
KBIL 050731Z 0508/0606 30017G23KT P6SM OVC070
     FM050900 27010KT P6SM SCT050 WS020/31035KT
     FM051400 23015G25KT P6SM BKN100
     FM060100 22022G35KT P6SM SCT070=



000
FTUS45 KBYZ 050632 AAA
TAFSHR
TAF AMD
KSHR 050632Z 0507/0606 33015G25KT 4SM -SN SCT025 OVC100
      TEMPO 0507/0509 2SM -SN BKN025
     FM050900 30020G30KT P6SM VCSH SCT020 BKN035
     FM051200 30015G25KT P6SM SCT030
     FM051600 VRB05KT P6SM SCT050
      AMD NOT SKED=



000
FTUS45 KBYZ 050632 AAA
TAFSHR
TAF AMD
KSHR 050632Z 0507/0606 33015G25KT 4SM -SN SCT025 OVC100
      TEMPO 0507/0509 2SM -SN BKN025
     FM050900 30020G30KT P6SM VCSH SCT020 BKN035
     FM051200 30015G25KT P6SM SCT030
     FM051600 VRB05KT P6SM SCT050
      AMD NOT SKED=



000
FTUS45 KBYZ 050632 AAA
TAFSHR
TAF AMD
KSHR 050632Z 0507/0606 33015G25KT 4SM -SN SCT025 OVC100
      TEMPO 0507/0509 2SM -SN BKN025
     FM050900 30020G30KT P6SM VCSH SCT020 BKN035
     FM051200 30015G25KT P6SM SCT030
     FM051600 VRB05KT P6SM SCT050
      AMD NOT SKED=



000
FTUS45 KBYZ 050606 AAA
TAFMLS
TAF AMD
KMLS 050606Z 0506/0606 31012KT 5SM -SN BR OVC035
      TEMPO 0506/0508 2SM -SN BKN020
     FM051400 27012KT P6SM SCT030 BKN060
     FM051700 26011KT P6SM SCT010 SCT120
     FM052200 26014G22KT P6SM SKC
     FM060300 25020G35KT P6SM FEW030=



000
FTUS45 KBYZ 050606 AAA
TAFMLS
TAF AMD
KMLS 050606Z 0506/0606 31012KT 5SM -SN BR OVC035
      TEMPO 0506/0508 2SM -SN BKN020
     FM051400 27012KT P6SM SCT030 BKN060
     FM051700 26011KT P6SM SCT010 SCT120
     FM052200 26014G22KT P6SM SKC
     FM060300 25020G35KT P6SM FEW030=



000
FTUS45 KBYZ 050606 AAA
TAFMLS
TAF AMD
KMLS 050606Z 0506/0606 31012KT 5SM -SN BR OVC035
      TEMPO 0506/0508 2SM -SN BKN020
     FM051400 27012KT P6SM SCT030 BKN060
     FM051700 26011KT P6SM SCT010 SCT120
     FM052200 26014G22KT P6SM SKC
     FM060300 25020G35KT P6SM FEW030=



000
FTUS45 KBYZ 050605 AAA
TAFBIL
TAF AMD
KBIL 050605Z 0506/0606 30018G31KT P6SM VCSH BKN100 OVC160
      TEMPO 0506/0508 1SM -SN SCT015 OVC030
     FM050900 27010KT P6SM SCT050 WS020/31035KT
     FM051400 23015G25KT P6SM BKN100
     FM060100 22022G35KT P6SM SCT070=



000
FTUS45 KBYZ 050605 AAA
TAFBIL
TAF AMD
KBIL 050605Z 0506/0606 30018G31KT P6SM VCSH BKN100 OVC160
      TEMPO 0506/0508 1SM -SN SCT015 OVC030
     FM050900 27010KT P6SM SCT050 WS020/31035KT
     FM051400 23015G25KT P6SM BKN100
     FM060100 22022G35KT P6SM SCT070=



000
FTUS45 KBYZ 050605 AAA
TAFBIL
TAF AMD
KBIL 050605Z 0506/0606 30018G31KT P6SM VCSH BKN100 OVC160
      TEMPO 0506/0508 1SM -SN SCT015 OVC030
     FM050900 27010KT P6SM SCT050 WS020/31035KT
     FM051400 23015G25KT P6SM BKN100
     FM060100 22022G35KT P6SM SCT070=



000
FTUS45 KBYZ 050533
TAFLVM
TAF
KLVM 050533Z 0506/0606 23025G35KT P6SM VCSH SCT035 BKN060
     FM051000 24015G25KT P6SM SCT050
     FM051500 22020G35KT P6SM SCT040 BKN060
     FM052000 22033G45KT P6SM SCT060
     FM060200 22040G50KT P6SM SCT060=



000
FTUS45 KBYZ 050533
TAFLVM
TAF
KLVM 050533Z 0506/0606 23025G35KT P6SM VCSH SCT035 BKN060
     FM051000 24015G25KT P6SM SCT050
     FM051500 22020G35KT P6SM SCT040 BKN060
     FM052000 22033G45KT P6SM SCT060
     FM060200 22040G50KT P6SM SCT060=



000
FTUS45 KBYZ 050533
TAFMLS
TAF
KMLS 050533Z 0506/0606 28015G22KT P6SM VCSH BKN070
      TEMPO 0506/0508 3SM -SHSN BKN020
     FM051400 27012KT P6SM SCT030 BKN060
     FM051700 26011KT P6SM SCT010 SCT120
     FM052200 26014G22KT P6SM SKC
     FM060300 25020G35KT P6SM FEW030=



000
FTUS45 KBYZ 050533
TAFBIL
TAF
KBIL 050533Z 0506/0606 32010KT P6SM VCSH BKN060 WS020/31035KT
      TEMPO 0506/0508 1SM -SN SCT015 OVC030
     FM050900 27010KT P6SM SCT050 WS020/31035KT
     FM051400 23015G25KT P6SM BKN100
     FM060100 22022G35KT P6SM SCT070=



000
FTUS45 KBYZ 050533
TAFBIL
TAF
KBIL 050533Z 0506/0606 32010KT P6SM VCSH BKN060 WS020/31035KT
      TEMPO 0506/0508 1SM -SN SCT015 OVC030
     FM050900 27010KT P6SM SCT050 WS020/31035KT
     FM051400 23015G25KT P6SM BKN100
     FM060100 22022G35KT P6SM SCT070=



000
FTUS45 KBYZ 050533
TAFMLS
TAF
KMLS 050533Z 0506/0606 28015G22KT P6SM VCSH BKN070
      TEMPO 0506/0508 3SM -SHSN BKN020
     FM051400 27012KT P6SM SCT030 BKN060
     FM051700 26011KT P6SM SCT010 SCT120
     FM052200 26014G22KT P6SM SKC
     FM060300 25020G35KT P6SM FEW030=



000
FTUS45 KBYZ 050533
TAFBIL
TAF
KBIL 050533Z 0506/0606 32010KT P6SM VCSH BKN060 WS020/31035KT
      TEMPO 0506/0508 1SM -SN SCT015 OVC030
     FM050900 27010KT P6SM SCT050 WS020/31035KT
     FM051400 23015G25KT P6SM BKN100
     FM060100 22022G35KT P6SM SCT070=



000
FTUS45 KBYZ 050533
TAFSHR
TAF
KSHR 050533Z 0506/0606 30010G18KT P6SM VCSH OVC070
      TEMPO 0506/0509 30025G45KT 3SM -SHSN BKN020
     FM050900 30020G30KT P6SM VCSH SCT020 BKN035
     FM051200 30015G25KT P6SM SCT030
     FM051600 VRB05KT P6SM SCT050=



000
FTUS45 KBYZ 050533
TAFLVM
TAF
KLVM 050533Z 0506/0606 23025G35KT P6SM VCSH SCT035 BKN060
     FM051000 24015G25KT P6SM SCT050
     FM051500 22020G35KT P6SM SCT040 BKN060
     FM052000 22033G45KT P6SM SCT060
     FM060200 22040G50KT P6SM SCT060=



000
FTUS45 KBYZ 050533
TAFMLS
TAF
KMLS 050533Z 0506/0606 28015G22KT P6SM VCSH BKN070
      TEMPO 0506/0508 3SM -SHSN BKN020
     FM051400 27012KT P6SM SCT030 BKN060
     FM051700 26011KT P6SM SCT010 SCT120
     FM052200 26014G22KT P6SM SKC
     FM060300 25020G35KT P6SM FEW030=



000
FTUS45 KBYZ 050533
TAFSHR
TAF
KSHR 050533Z 0506/0606 30010G18KT P6SM VCSH OVC070
      TEMPO 0506/0509 30025G45KT 3SM -SHSN BKN020
     FM050900 30020G30KT P6SM VCSH SCT020 BKN035
     FM051200 30015G25KT P6SM SCT030
     FM051600 VRB05KT P6SM SCT050=



000
FTUS45 KBYZ 050533
TAFSHR
TAF
KSHR 050533Z 0506/0606 30010G18KT P6SM VCSH OVC070
      TEMPO 0506/0509 30025G45KT 3SM -SHSN BKN020
     FM050900 30020G30KT P6SM VCSH SCT020 BKN035
     FM051200 30015G25KT P6SM SCT030
     FM051600 VRB05KT P6SM SCT050=



000
FTUS45 KBYZ 050401 AAA
TAFSHR
TAF AMD
KSHR 050401Z 0504/0524 30010G18KT P6SM VCSH OVC070
     FM051600 VRB05KT P6SM SCT050=



000
FTUS45 KBYZ 050401 AAB
TAFMLS
TAF AMD
KMLS 050401Z 0504/0524 28015G22KT P6SM VCSH BKN070
      TEMPO 0504/0506 3SM -SHSN BKN020
     FM050600 32020G30KT P6SM VCSH SCT020 BKN030
     FM051100 28010KT P6SM SCT030 BKN060=



000
FTUS45 KBYZ 050401 AAB
TAFMLS
TAF AMD
KMLS 050401Z 0504/0524 28015G22KT P6SM VCSH BKN070
      TEMPO 0504/0506 3SM -SHSN BKN020
     FM050600 32020G30KT P6SM VCSH SCT020 BKN030
     FM051100 28010KT P6SM SCT030 BKN060=



000
FTUS45 KBYZ 050401 AAB
TAFMLS
TAF AMD
KMLS 050401Z 0504/0524 28015G22KT P6SM VCSH BKN070
      TEMPO 0504/0506 3SM -SHSN BKN020
     FM050600 32020G30KT P6SM VCSH SCT020 BKN030
     FM051100 28010KT P6SM SCT030 BKN060=



000
FTUS45 KBYZ 050401 AAA
TAFSHR
TAF AMD
KSHR 050401Z 0504/0524 30010G18KT P6SM VCSH OVC070
     FM051600 VRB05KT P6SM SCT050=



000
FTUS45 KBYZ 050359 AAB
TAFBIL
TAF AMD
KBIL 050359Z 0504/0524 32010KT P6SM VCSH BKN060 WS020/31035KT
     FM051400 23015G25KT P6SM BKN100=



000
FTUS45 KBYZ 050359 AAA
TAFLVM
TAF AMD
KLVM 050359Z 0504/0524 26025G35KT P6SM SCT035 BKN060
     FM051000 25015G25KT P6SM SCT050
     FM051500 22020G35KT P6SM SCT040 BKN060=



000
FTUS45 KBYZ 050222 AAA
TAFBIL
TAF AMD
KBIL 050222Z 0502/0524 25014KT P6SM VCSH BKN060 WS020/31035KT
      TEMPO 0503/0504 29027KT 6SM -SHSN BKN040
     FM051400 23015G25KT P6SM BKN100=



000
FTUS45 KBYZ 050222 AAA
TAFBIL
TAF AMD
KBIL 050222Z 0502/0524 25014KT P6SM VCSH BKN060 WS020/31035KT
      TEMPO 0503/0504 29027KT 6SM -SHSN BKN040
     FM051400 23015G25KT P6SM BKN100=



000
FTUS45 KBYZ 050222 AAA
TAFBIL
TAF AMD
KBIL 050222Z 0502/0524 25014KT P6SM VCSH BKN060 WS020/31035KT
      TEMPO 0503/0504 29027KT 6SM -SHSN BKN040
     FM051400 23015G25KT P6SM BKN100=



000
FTUS45 KBYZ 050055 AAA
TAFMLS
TAF AMD
KMLS 050055Z 0501/0524 22007KT P6SM VCSH BKN060
     FM050215 28018G25KT P6SM VCSH BKN040
      TEMPO 0503/0506 3SM -SHSN BKN020
     FM050600 32020G30KT P6SM VCSH SCT020 BKN030
     FM051100 28010KT P6SM SCT030 BKN060=



000
FTUS45 KBYZ 050055 AAA
TAFMLS
TAF AMD
KMLS 050055Z 0501/0524 22007KT P6SM VCSH BKN060
     FM050215 28018G25KT P6SM VCSH BKN040
      TEMPO 0503/0506 3SM -SHSN BKN020
     FM050600 32020G30KT P6SM VCSH SCT020 BKN030
     FM051100 28010KT P6SM SCT030 BKN060=



    US Dept of Commerce
    National Oceanic and Atmospheric Administration
    National Weather Service
    1325 East West Highway
    Silver Spring, MD 20910
    Page Author: NWS Internet Services Team
Disclaimer
Information Quality
Credits
Glossary
Privacy Policy
Freedom of Information Act (FOIA)
About Us
Career Opportunities